sensor_id;sensor_type;location;lat;lon;timestamp;temperature;humidity
21244;DHT22;10780;50.942;4.028;2022-12-18T00:00:29;-2.00;99.90
21244;DHT22;10780;50.942;4.028;2022-12-18T00:02:55;-2.20;99.90
21244;DHT22;10780;50.942;4.028;2022-12-18T00:05:21;-2.40;99.90
21244;DHT22;10780;50.942;4.028;2022-12-18T00:07:46;-2.50;99.90
21244;DHT22;10780;50.942;4.028;2022-12-18T00:10:12;-2.60;99.90
21244;DHT22;10780;50.942;4.028;2022-12-18T00:12:38;-2.70;99.90
21244;DHT22;10780;50.942;4.028;2022-12-18T00:15:04;-2.80;99.90
21244;DHT22;10780;50.942;4.028;2022-12-18T00:17:29;-2.80;99.90
21244;DHT22;10780;50.942;4.028;2022-12-18T00:19:55;-2.80;99.90
21244;DHT22;10780;50.942;4.028;2022-12-18T00:22:20;-2.70;99.90
21244;DHT22;10780;50.942;4.028;2022-12-18T00:24:46;-2.70;99.90
21244;DHT22;10780;50.942;4.028;2022-12-18T00:27:12;-2.70;99.90
21244;DHT22;10780;50.942;4.028;2022-12-18T00:29:37;-2.90;99.90
21244;DHT22;10780;50.942;4.028;2022-12-18T00:32:03;-3.00;99.90
21244;DHT22;10780;50.942;4.028;2022-12-18T00:34:28;-3.00;99.90
21244;DHT22;10780;50.942;4.028;2022-12-18T00:36:54;-3.00;99.90
21244;DHT22;10780;50.942;4.028;2022-12-18T00:39:20;-3.10;99.90
21244;DHT22;10780;50.942;4.028;2022-12-18T00:41:46;-3.00;99.90
21244;DHT22;10780;50.942;4.028;2022-12-18T00:44:30;-2.70;99.90
21244;DHT22;10780;50.942;4.028;2022-12-18T00:46:55;-2.80;99.90
21244;DHT22;10780;50.942;4.028;2022-12-18T00:49:21;-2.70;99.90
21244;DHT22;10780;50.942;4.028;2022-12-18T00:51:47;-2.80;99.90
21244;DHT22;10780;50.942;4.028;2022-12-18T00:54:13;-2.70;99.90
21244;DHT22;10780;50.942;4.028;2022-12-18T00:56:39;-2.70;99.90
21244;DHT22;10780;50.942;4.028;2022-12-18T00:59:05;-2.70;99.90
21244;DHT22;10780;50.942;4.028;2022-12-18T01:01:31;-2.60;99.90
21244;DHT22;10780;50.942;4.028;2022-12-18T01:03:59;-2.50;99.90
21244;DHT22;10780;50.942;4.028;2022-12-18T01:06:24;-2.60;99.90
21244;DHT22;10780;50.942;4.028;2022-12-18T01:08:50;-2.70;99.90
21244;DHT22;10780;50.942;4.028;2022-12-18T01:11:19;-2.80;99.90
21244;DHT22;10780;50.942;4.028;2022-12-18T01:13:45;-2.70;99.90
21244;DHT22;10780;50.942;4.028;2022-12-18T01:16:12;-2.60;99.90
21244;DHT22;10780;50.942;4.028;2022-12-18T01:18:37;-2.60;99.90
21244;DHT22;10780;50.942;4.028;2022-12-18T01:21:16;-2.70;99.90
21244;DHT22;10780;50.942;4.028;2022-12-18T01:23:42;-2.80;99.90
21244;DHT22;10780;50.942;4.028;2022-12-18T01:26:15;-2.80;99.90
21244;DHT22;10780;50.942;4.028;2022-12-18T01:28:41;-2.60;99.90
21244;DHT22;10780;50.942;4.028;2022-12-18T01:31:17;-2.70;99.90
21244;DHT22;10780;50.942;4.028;2022-12-18T01:33:43;-2.60;99.90
21244;DHT22;10780;50.942;4.028;2022-12-18T01:36:15;-2.70;99.90
21244;DHT22;10780;50.942;4.028;2022-12-18T01:38:41;-2.80;99.90
21244;DHT22;10780;50.942;4.028;2022-12-18T01:41:08;-2.70;99.90
21244;DHT22;10780;50.942;4.028;2022-12-18T01:43:49;-2.90;99.90
21244;DHT22;10780;50.942;4.028;2022-12-18T01:46:16;-3.20;99.90
21244;DHT22;10780;50.942;4.028;2022-12-18T01:48:42;-3.40;99.90
21244;DHT22;10780;50.942;4.028;2022-12-18T01:51:09;-3.50;99.90
21244;DHT22;10780;50.942;4.028;2022-12-18T01:53:37;-3.40;99.90
21244;DHT22;10780;50.942;4.028;2022-12-18T01:56:03;-3.30;99.90
21244;DHT22;10780;50.942;4.028;2022-12-18T01:58:57;-3.40;99.90
21244;DHT22;10780;50.942;4.028;2022-12-18T02:01:25;-3.30;99.90
21244;DHT22;10780;50.942;4.028;2022-12-18T02:03:52;-3.40;99.90
21244;DHT22;10780;50.942;4.028;2022-12-18T02:17:19;-4.10;99.90
21244;DHT22;10780;50.942;4.028;2022-12-18T02:27:52;-3.90;99.90
21244;DHT22;10780;50.942;4.028;2022-12-18T02:30:18;-3.80;99.90
21244;DHT22;10780;50.942;4.028;2022-12-18T02:32:51;-3.70;99.90
21244;DHT22;10780;50.942;4.028;2022-12-18T02:35:23;-3.60;99.90
21244;DHT22;10780;50.942;4.028;2022-12-18T02:37:50;-3.60;99.90
21244;DHT22;10780;50.942;4.028;2022-12-18T02:40:17;-3.60;99.90
21244;DHT22;10780;50.942;4.028;2022-12-18T02:42:44;-3.50;99.90
21244;DHT22;10780;50.942;4.028;2022-12-18T02:45:10;-3.40;99.90
21244;DHT22;10780;50.942;4.028;2022-12-18T02:47:39;-3.30;99.90
21244;DHT22;10780;50.942;4.028;2022-12-18T02:53:13;-3.40;99.90
21244;DHT22;10780;50.942;4.028;2022-12-18T02:56:07;-3.60;99.90
21244;DHT22;10780;50.942;4.028;2022-12-18T02:58:43;-3.80;99.90
21244;DHT22;10780;50.942;4.028;2022-12-18T03:01:28;-3.90;99.90
21244;DHT22;10780;50.942;4.028;2022-12-18T03:03:59;-4.00;99.90
21244;DHT22;10780;50.942;4.028;2022-12-18T03:06:37;-4.10;99.90
21244;DHT22;10780;50.942;4.028;2022-12-18T03:09:11;-4.10;99.90
21244;DHT22;10780;50.942;4.028;2022-12-18T03:11:42;-4.10;99.90
21244;DHT22;10780;50.942;4.028;2022-12-18T03:14:30;-4.00;99.90
21244;DHT22;10780;50.942;4.028;2022-12-18T03:17:00;-4.10;99.90
21244;DHT22;10780;50.942;4.028;2022-12-18T03:19:29;-4.10;99.90
21244;DHT22;10780;50.942;4.028;2022-12-18T03:21:57;-4.10;99.90
21244;DHT22;10780;50.942;4.028;2022-12-18T03:24:26;-4.00;99.90
21244;DHT22;10780;50.942;4.028;2022-12-18T03:26:56;-4.00;99.90
21244;DHT22;10780;50.942;4.028;2022-12-18T03:29:26;-4.00;99.90
21244;DHT22;10780;50.942;4.028;2022-12-18T03:31:56;-3.80;99.90
21244;DHT22;10780;50.942;4.028;2022-12-18T03:34:28;-3.70;99.90
21244;DHT22;10780;50.942;4.028;2022-12-18T03:36:54;-3.80;99.90
21244;DHT22;10780;50.942;4.028;2022-12-18T03:39:20;-3.90;99.90
21244;DHT22;10780;50.942;4.028;2022-12-18T03:44:57;-4.20;99.90
21244;DHT22;10780;50.942;4.028;2022-12-18T03:48:04;-4.40;99.90
21244;DHT22;10780;50.942;4.028;2022-12-18T03:53:14;-4.30;99.90
21244;DHT22;10780;50.942;4.028;2022-12-18T03:55:43;-4.30;99.90
21244;DHT22;10780;50.942;4.028;2022-12-18T03:58:11;-4.60;99.90
21244;DHT22;10780;50.942;4.028;2022-12-18T04:00:39;-4.60;99.90
21244;DHT22;10780;50.942;4.028;2022-12-18T04:03:05;-4.60;99.90
21244;DHT22;10780;50.942;4.028;2022-12-18T04:05:34;-4.60;99.90
21244;DHT22;10780;50.942;4.028;2022-12-18T04:08:00;-4.50;99.90
21244;DHT22;10780;50.942;4.028;2022-12-18T04:10:26;-4.50;99.90
21244;DHT22;10780;50.942;4.028;2022-12-18T04:12:55;-4.60;99.90
21244;DHT22;10780;50.942;4.028;2022-12-18T04:15:21;-4.70;99.90
21244;DHT22;10780;50.942;4.028;2022-12-18T04:17:48;-4.80;99.90
21244;DHT22;10780;50.942;4.028;2022-12-18T04:20:15;-4.70;99.90
21244;DHT22;10780;50.942;4.028;2022-12-18T04:22:41;-4.50;99.90
21244;DHT22;10780;50.942;4.028;2022-12-18T04:25:07;-4.50;99.90
21244;DHT22;10780;50.942;4.028;2022-12-18T04:27:33;-4.50;99.90
21244;DHT22;10780;50.942;4.028;2022-12-18T04:29:59;-4.40;99.90
21244;DHT22;10780;50.942;4.028;2022-12-18T04:32:25;-4.50;99.90
21244;DHT22;10780;50.942;4.028;2022-12-18T04:34:50;-4.60;99.90
21244;DHT22;10780;50.942;4.028;2022-12-18T04:37:16;-4.70;99.90
21244;DHT22;10780;50.942;4.028;2022-12-18T04:39:41;-4.80;99.90
21244;DHT22;10780;50.942;4.028;2022-12-18T04:42:07;-4.70;99.90
21244;DHT22;10780;50.942;4.028;2022-12-18T04:44:33;-4.60;99.90
21244;DHT22;10780;50.942;4.028;2022-12-18T04:46:58;-4.60;99.90
21244;DHT22;10780;50.942;4.028;2022-12-18T04:49:24;-4.60;99.90
21244;DHT22;10780;50.942;4.028;2022-12-18T04:51:50;-4.60;99.90
21244;DHT22;10780;50.942;4.028;2022-12-18T04:54:15;-4.70;99.90
21244;DHT22;10780;50.942;4.028;2022-12-18T04:56:41;-4.70;99.90
21244;DHT22;10780;50.942;4.028;2022-12-18T04:59:07;-4.70;99.90
21244;DHT22;10780;50.942;4.028;2022-12-18T05:01:32;-4.70;99.90
21244;DHT22;10780;50.942;4.028;2022-12-18T05:03:58;-4.70;99.90
21244;DHT22;10780;50.942;4.028;2022-12-18T05:06:24;-4.70;99.90
21244;DHT22;10780;50.942;4.028;2022-12-18T05:08:49;-4.60;99.90
21244;DHT22;10780;50.942;4.028;2022-12-18T05:11:15;-4.50;99.90
21244;DHT22;10780;50.942;4.028;2022-12-18T05:13:42;-4.40;99.90
21244;DHT22;10780;50.942;4.028;2022-12-18T05:16:08;-4.30;99.90
21244;DHT22;10780;50.942;4.028;2022-12-18T05:18:34;-4.20;99.90
21244;DHT22;10780;50.942;4.028;2022-12-18T05:21:00;-4.20;99.90
21244;DHT22;10780;50.942;4.028;2022-12-18T05:23:26;-4.10;99.90
21244;DHT22;10780;50.942;4.028;2022-12-18T05:25:56;-4.00;99.90
21244;DHT22;10780;50.942;4.028;2022-12-18T05:28:23;-3.90;99.90
21244;DHT22;10780;50.942;4.028;2022-12-18T05:30:55;-3.90;99.90
21244;DHT22;10780;50.942;4.028;2022-12-18T05:33:22;-3.80;99.90
21244;DHT22;10780;50.942;4.028;2022-12-18T05:35:52;-3.80;99.90
21244;DHT22;10780;50.942;4.028;2022-12-18T05:38:19;-3.90;99.90
21244;DHT22;10780;50.942;4.028;2022-12-18T05:40:45;-4.00;99.90
21244;DHT22;10780;50.942;4.028;2022-12-18T05:43:10;-4.00;99.90
21244;DHT22;10780;50.942;4.028;2022-12-18T05:45:39;-3.90;99.90
21244;DHT22;10780;50.942;4.028;2022-12-18T05:48:05;-3.90;99.90
21244;DHT22;10780;50.942;4.028;2022-12-18T05:50:35;-4.00;99.90
21244;DHT22;10780;50.942;4.028;2022-12-18T05:53:02;-4.10;99.90
21244;DHT22;10780;50.942;4.028;2022-12-18T05:55:27;-4.10;99.90
21244;DHT22;10780;50.942;4.028;2022-12-18T05:57:53;-4.10;99.90
21244;DHT22;10780;50.942;4.028;2022-12-18T06:00:18;-4.10;99.90
21244;DHT22;10780;50.942;4.028;2022-12-18T06:02:47;-4.20;99.90
21244;DHT22;10780;50.942;4.028;2022-12-18T06:05:12;-4.40;99.90
21244;DHT22;10780;50.942;4.028;2022-12-18T06:07:38;-4.40;99.90
21244;DHT22;10780;50.942;4.028;2022-12-18T06:10:04;-4.50;99.90
21244;DHT22;10780;50.942;4.028;2022-12-18T06:12:30;-4.50;99.90
21244;DHT22;10780;50.942;4.028;2022-12-18T06:14:55;-4.40;99.90
21244;DHT22;10780;50.942;4.028;2022-12-18T06:17:21;-4.40;99.90
21244;DHT22;10780;50.942;4.028;2022-12-18T06:19:47;-4.40;99.90
21244;DHT22;10780;50.942;4.028;2022-12-18T06:22:12;-4.30;99.90
21244;DHT22;10780;50.942;4.028;2022-12-18T06:24:38;-4.20;99.90
21244;DHT22;10780;50.942;4.028;2022-12-18T06:27:03;-4.10;99.90
21244;DHT22;10780;50.942;4.028;2022-12-18T06:29:29;-4.10;99.90
21244;DHT22;10780;50.942;4.028;2022-12-18T06:31:54;-4.20;99.90
21244;DHT22;10780;50.942;4.028;2022-12-18T06:34:20;-4.10;99.90
21244;DHT22;10780;50.942;4.028;2022-12-18T06:36:46;-4.20;99.90
21244;DHT22;10780;50.942;4.028;2022-12-18T06:39:11;-4.20;99.90
21244;DHT22;10780;50.942;4.028;2022-12-18T06:41:37;-4.20;99.90
21244;DHT22;10780;50.942;4.028;2022-12-18T06:44:03;-4.20;99.90
21244;DHT22;10780;50.942;4.028;2022-12-18T06:46:28;-4.10;99.90
21244;DHT22;10780;50.942;4.028;2022-12-18T06:48:54;-4.10;99.90
21244;DHT22;10780;50.942;4.028;2022-12-18T06:51:21;-4.10;99.90
21244;DHT22;10780;50.942;4.028;2022-12-18T06:53:47;-4.00;99.90
21244;DHT22;10780;50.942;4.028;2022-12-18T06:56:12;-4.00;99.90
21244;DHT22;10780;50.942;4.028;2022-12-18T06:58:39;-4.00;99.90
21244;DHT22;10780;50.942;4.028;2022-12-18T07:01:07;-4.00;99.90
21244;DHT22;10780;50.942;4.028;2022-12-18T07:03:33;-3.80;99.90
21244;DHT22;10780;50.942;4.028;2022-12-18T07:05:59;-3.70;99.90
21244;DHT22;10780;50.942;4.028;2022-12-18T07:08:25;-3.60;99.90
21244;DHT22;10780;50.942;4.028;2022-12-18T07:10:51;-3.50;99.90
21244;DHT22;10780;50.942;4.028;2022-12-18T07:13:17;-3.50;99.90
21244;DHT22;10780;50.942;4.028;2022-12-18T07:15:43;-3.50;99.90
21244;DHT22;10780;50.942;4.028;2022-12-18T07:18:09;-3.40;99.90
21244;DHT22;10780;50.942;4.028;2022-12-18T07:20:35;-3.40;99.90
21244;DHT22;10780;50.942;4.028;2022-12-18T07:23:02;-3.40;99.90
21244;DHT22;10780;50.942;4.028;2022-12-18T07:25:28;-3.50;99.90
21244;DHT22;10780;50.942;4.028;2022-12-18T07:27:54;-3.50;99.90
21244;DHT22;10780;50.942;4.028;2022-12-18T07:30:20;-3.40;99.90
21244;DHT22;10780;50.942;4.028;2022-12-18T07:32:45;-3.40;99.90
21244;DHT22;10780;50.942;4.028;2022-12-18T07:35:11;-3.50;99.90
21244;DHT22;10780;50.942;4.028;2022-12-18T07:37:36;-3.60;99.90
21244;DHT22;10780;50.942;4.028;2022-12-18T07:40:02;-3.60;99.90
21244;DHT22;10780;50.942;4.028;2022-12-18T07:42:28;-3.70;99.90
21244;DHT22;10780;50.942;4.028;2022-12-18T07:44:57;-3.60;99.90
21244;DHT22;10780;50.942;4.028;2022-12-18T07:47:22;-3.60;99.90
21244;DHT22;10780;50.942;4.028;2022-12-18T07:49:48;-3.60;99.90
21244;DHT22;10780;50.942;4.028;2022-12-18T07:52:14;-3.50;99.90
21244;DHT22;10780;50.942;4.028;2022-12-18T07:54:39;-3.50;99.90
21244;DHT22;10780;50.942;4.028;2022-12-18T07:57:08;-3.50;99.90
21244;DHT22;10780;50.942;4.028;2022-12-18T07:59:34;-3.40;99.90
21244;DHT22;10780;50.942;4.028;2022-12-18T08:02:00;-3.30;99.90
21244;DHT22;10780;50.942;4.028;2022-12-18T08:04:26;-3.30;99.90
21244;DHT22;10780;50.942;4.028;2022-12-18T08:06:51;-3.30;99.90
21244;DHT22;10780;50.942;4.028;2022-12-18T08:09:17;-3.30;99.90
21244;DHT22;10780;50.942;4.028;2022-12-18T08:11:43;-3.30;99.90
21244;DHT22;10780;50.942;4.028;2022-12-18T08:14:09;-3.20;99.90
21244;DHT22;10780;50.942;4.028;2022-12-18T08:16:35;-3.10;99.90
21244;DHT22;10780;50.942;4.028;2022-12-18T08:19:01;-2.90;99.90
21244;DHT22;10780;50.942;4.028;2022-12-18T08:21:28;-2.80;99.90
21244;DHT22;10780;50.942;4.028;2022-12-18T08:23:56;-2.60;99.90
21244;DHT22;10780;50.942;4.028;2022-12-18T08:26:22;-2.40;99.90
21244;DHT22;10780;50.942;4.028;2022-12-18T08:28:49;-2.20;99.90
21244;DHT22;10780;50.942;4.028;2022-12-18T08:31:15;-2.10;99.90
21244;DHT22;10780;50.942;4.028;2022-12-18T08:33:40;-2.00;99.90
21244;DHT22;10780;50.942;4.028;2022-12-18T08:36:08;-2.10;99.90
21244;DHT22;10780;50.942;4.028;2022-12-18T08:38:34;-2.10;99.90
21244;DHT22;10780;50.942;4.028;2022-12-18T08:41:00;-2.10;99.90
21244;DHT22;10780;50.942;4.028;2022-12-18T08:43:26;-1.90;99.90
21244;DHT22;10780;50.942;4.028;2022-12-18T08:46:11;-1.70;99.90
21244;DHT22;10780;50.942;4.028;2022-12-18T08:48:37;-1.50;99.90
21244;DHT22;10780;50.942;4.028;2022-12-18T08:51:02;-1.40;99.90
21244;DHT22;10780;50.942;4.028;2022-12-18T08:53:28;-1.10;99.90
21244;DHT22;10780;50.942;4.028;2022-12-18T08:55:56;-1.00;99.90
21244;DHT22;10780;50.942;4.028;2022-12-18T08:58:22;-1.00;99.90
21244;DHT22;10780;50.942;4.028;2022-12-18T09:00:47;-0.90;99.90
21244;DHT22;10780;50.942;4.028;2022-12-18T09:03:17;-0.80;99.90
21244;DHT22;10780;50.942;4.028;2022-12-18T09:05:45;-0.60;99.90
21244;DHT22;10780;50.942;4.028;2022-12-18T09:08:11;-0.50;99.90
21244;DHT22;10780;50.942;4.028;2022-12-18T09:10:44;-0.50;99.90
21244;DHT22;10780;50.942;4.028;2022-12-18T09:13:11;-0.60;99.90
21244;DHT22;10780;50.942;4.028;2022-12-18T09:15:48;-0.40;99.90
21244;DHT22;10780;50.942;4.028;2022-12-18T09:18:15;-0.10;99.90
21244;DHT22;10780;50.942;4.028;2022-12-18T09:20:42;-0.20;99.90
21244;DHT22;10780;50.942;4.028;2022-12-18T09:23:08;-0.10;99.90
21244;DHT22;10780;50.942;4.028;2022-12-18T09:25:34;0.00;99.90
21244;DHT22;10780;50.942;4.028;2022-12-18T09:28:02;0.10;99.90
21244;DHT22;10780;50.942;4.028;2022-12-18T09:30:28;0.10;99.90
21244;DHT22;10780;50.942;4.028;2022-12-18T09:32:54;0.20;99.90
21244;DHT22;10780;50.942;4.028;2022-12-18T09:35:20;0.30;99.90
21244;DHT22;10780;50.942;4.028;2022-12-18T09:37:46;0.30;99.90
21244;DHT22;10780;50.942;4.028;2022-12-18T09:40:21;0.40;99.90
21244;DHT22;10780;50.942;4.028;2022-12-18T09:42:56;0.60;99.90
21244;DHT22;10780;50.942;4.028;2022-12-18T09:45:23;0.50;99.90
21244;DHT22;10780;50.942;4.028;2022-12-18T09:47:50;0.80;99.90
21244;DHT22;10780;50.942;4.028;2022-12-18T09:50:28;1.00;99.90
21244;DHT22;10780;50.942;4.028;2022-12-18T09:52:59;1.00;99.90
21244;DHT22;10780;50.942;4.028;2022-12-18T09:55:31;1.00;99.90
21244;DHT22;10780;50.942;4.028;2022-12-18T10:00:43;1.40;99.90
21244;DHT22;10780;50.942;4.028;2022-12-18T10:03:11;1.40;99.90
21244;DHT22;10780;50.942;4.028;2022-12-18T10:08:28;1.60;99.90
21244;DHT22;10780;50.942;4.028;2022-12-18T10:11:21;1.80;99.90
21244;DHT22;10780;50.942;4.028;2022-12-18T10:19:43;1.50;99.90
21244;DHT22;10780;50.942;4.028;2022-12-18T10:25:22;1.60;99.90
21244;DHT22;10780;50.942;4.028;2022-12-18T10:27:56;1.60;99.90
21244;DHT22;10780;50.942;4.028;2022-12-18T10:30:25;1.70;99.90
21244;DHT22;10780;50.942;4.028;2022-12-18T10:32:51;1.50;99.90
21244;DHT22;10780;50.942;4.028;2022-12-18T10:35:24;1.60;99.90
21244;DHT22;10780;50.942;4.028;2022-12-18T10:38:02;1.70;99.90
21244;DHT22;10780;50.942;4.028;2022-12-18T10:40:28;1.90;99.90
21244;DHT22;10780;50.942;4.028;2022-12-18T10:43:12;1.90;99.90
21244;DHT22;10780;50.942;4.028;2022-12-18T10:45:38;2.10;99.90
21244;DHT22;10780;50.942;4.028;2022-12-18T10:48:04;2.00;99.90
21244;DHT22;10780;50.942;4.028;2022-12-18T10:50:47;1.70;99.90
21244;DHT22;10780;50.942;4.028;2022-12-18T10:53:22;1.90;99.90
21244;DHT22;10780;50.942;4.028;2022-12-18T10:55:48;2.10;99.90
21244;DHT22;10780;50.942;4.028;2022-12-18T11:03:43;2.50;99.90
21244;DHT22;10780;50.942;4.028;2022-12-18T11:06:12;2.70;99.90
21244;DHT22;10780;50.942;4.028;2022-12-18T11:08:38;2.80;99.90
21244;DHT22;10780;50.942;4.028;2022-12-18T11:11:15;2.60;99.90
21244;DHT22;10780;50.942;4.028;2022-12-18T11:16:19;2.60;99.90
21244;DHT22;10780;50.942;4.028;2022-12-18T11:18:45;2.40;99.90
21244;DHT22;10780;50.942;4.028;2022-12-18T11:21:12;2.40;99.90
21244;DHT22;10780;50.942;4.028;2022-12-18T11:23:49;2.70;99.90
21244;DHT22;10780;50.942;4.028;2022-12-18T11:26:15;2.70;99.90
21244;DHT22;10780;50.942;4.028;2022-12-18T11:28:51;3.00;99.90
21244;DHT22;10780;50.942;4.028;2022-12-18T11:34:04;3.00;99.90
21244;DHT22;10780;50.942;4.028;2022-12-18T11:36:37;3.00;99.90
21244;DHT22;10780;50.942;4.028;2022-12-18T11:39:31;3.20;99.90
21244;DHT22;10780;50.942;4.028;2022-12-18T11:42:14;3.30;99.90
21244;DHT22;10780;50.942;4.028;2022-12-18T11:44:48;3.40;99.90
21244;DHT22;10780;50.942;4.028;2022-12-18T11:47:38;3.30;99.90
21244;DHT22;10780;50.942;4.028;2022-12-18T11:50:13;3.30;99.90
21244;DHT22;10780;50.942;4.028;2022-12-18T11:52:41;3.30;99.90
21244;DHT22;10780;50.942;4.028;2022-12-18T11:57:56;3.30;99.90
21244;DHT22;10780;50.942;4.028;2022-12-18T12:00:23;3.40;99.90
21244;DHT22;10780;50.942;4.028;2022-12-18T12:03:27;3.40;99.90
21244;DHT22;10780;50.942;4.028;2022-12-18T12:06:10;3.50;99.90
21244;DHT22;10780;50.942;4.028;2022-12-18T12:11:32;3.60;99.90
21244;DHT22;10780;50.942;4.028;2022-12-18T12:14:22;3.20;99.90
21244;DHT22;10780;50.942;4.028;2022-12-18T12:17:13;3.10;99.90
21244;DHT22;10780;50.942;4.028;2022-12-18T12:20:00;3.30;99.90
21244;DHT22;10780;50.942;4.028;2022-12-18T12:36:12;2.80;99.90
21244;DHT22;10780;50.942;4.028;2022-12-18T12:38:42;2.60;99.90
21244;DHT22;10780;50.942;4.028;2022-12-18T12:41:12;2.60;99.90
21244;DHT22;10780;50.942;4.028;2022-12-18T12:44:01;2.90;99.90
21244;DHT22;10780;50.942;4.028;2022-12-18T12:46:31;3.00;99.90
21244;DHT22;10780;50.942;4.028;2022-12-18T12:49:01;3.20;99.90
21244;DHT22;10780;50.942;4.028;2022-12-18T12:51:37;3.40;99.90
21244;DHT22;10780;50.942;4.028;2022-12-18T12:54:06;3.00;99.90
21244;DHT22;10780;50.942;4.028;2022-12-18T12:56:42;3.00;99.90
21244;DHT22;10780;50.942;4.028;2022-12-18T13:05:22;3.40;99.90
21244;DHT22;10780;50.942;4.028;2022-12-18T13:07:59;3.30;99.90
21244;DHT22;10780;50.942;4.028;2022-12-18T13:10:31;3.50;99.90
21244;DHT22;10780;50.942;4.028;2022-12-18T13:18:10;3.60;99.90
21244;DHT22;10780;50.942;4.028;2022-12-18T13:20:46;3.60;99.90
21244;DHT22;10780;50.942;4.028;2022-12-18T13:34:26;3.30;99.90
21244;DHT22;10780;50.942;4.028;2022-12-18T13:36:53;3.30;99.90
21244;DHT22;10780;50.942;4.028;2022-12-18T13:44:33;3.30;99.90
21244;DHT22;10780;50.942;4.028;2022-12-18T13:47:01;3.40;99.90
21244;DHT22;10780;50.942;4.028;2022-12-18T13:49:37;3.30;99.90
21244;DHT22;10780;50.942;4.028;2022-12-18T13:52:18;3.20;99.90
21244;DHT22;10780;50.942;4.028;2022-12-18T13:54:49;3.30;99.90
21244;DHT22;10780;50.942;4.028;2022-12-18T13:57:30;3.20;99.90
21244;DHT22;10780;50.942;4.028;2022-12-18T13:59:57;3.20;99.90
21244;DHT22;10780;50.942;4.028;2022-12-18T14:02:26;3.20;99.90
21244;DHT22;10780;50.942;4.028;2022-12-18T14:04:53;3.10;99.90
21244;DHT22;10780;50.942;4.028;2022-12-18T14:07:20;3.10;99.90
21244;DHT22;10780;50.942;4.028;2022-12-18T14:09:54;2.90;99.90
21244;DHT22;10780;50.942;4.028;2022-12-18T14:12:26;2.90;99.90
21244;DHT22;10780;50.942;4.028;2022-12-18T14:20:49;2.90;99.90
21244;DHT22;10780;50.942;4.028;2022-12-18T14:23:36;2.90;99.90
21244;DHT22;10780;50.942;4.028;2022-12-18T14:34:33;2.50;99.90
21244;DHT22;10780;50.942;4.028;2022-12-18T14:36:59;2.40;99.90
21244;DHT22;10780;50.942;4.028;2022-12-18T14:39:24;2.40;99.90
21244;DHT22;10780;50.942;4.028;2022-12-18T14:41:51;2.50;99.90
21244;DHT22;10780;50.942;4.028;2022-12-18T14:44:16;2.50;99.90
21244;DHT22;10780;50.942;4.028;2022-12-18T14:46:46;2.50;99.90
21244;DHT22;10780;50.942;4.028;2022-12-18T14:49:31;2.40;99.90
21244;DHT22;10780;50.942;4.028;2022-12-18T14:51:59;2.40;99.90
21244;DHT22;10780;50.942;4.028;2022-12-18T14:54:26;2.40;99.90
21244;DHT22;10780;50.942;4.028;2022-12-18T14:59:36;2.20;99.90
21244;DHT22;10780;50.942;4.028;2022-12-18T15:02:20;2.20;99.90
21244;DHT22;10780;50.942;4.028;2022-12-18T15:04:46;2.10;99.90
21244;DHT22;10780;50.942;4.028;2022-12-18T15:07:16;2.30;99.90
21244;DHT22;10780;50.942;4.028;2022-12-18T15:09:44;2.40;99.90
21244;DHT22;10780;50.942;4.028;2022-12-18T15:13:20;2.40;99.90
21244;DHT22;10780;50.942;4.028;2022-12-18T15:18:00;2.60;99.90
21244;DHT22;10780;50.942;4.028;2022-12-18T15:20:26;2.50;99.90
21244;DHT22;10780;50.942;4.028;2022-12-18T15:22:51;2.50;99.90
21244;DHT22;10780;50.942;4.028;2022-12-18T15:25:36;2.40;99.90
21244;DHT22;10780;50.942;4.028;2022-12-18T15:28:03;2.20;99.90
21244;DHT22;10780;50.942;4.028;2022-12-18T15:30:29;2.30;99.90
21244;DHT22;10780;50.942;4.028;2022-12-18T15:33:22;2.40;99.90
21244;DHT22;10780;50.942;4.028;2022-12-18T15:35:59;2.50;99.90
21244;DHT22;10780;50.942;4.028;2022-12-18T15:38:26;2.60;99.90
21244;DHT22;10780;50.942;4.028;2022-12-18T15:40:53;2.50;99.90
21244;DHT22;10780;50.942;4.028;2022-12-18T15:43:24;2.50;99.90
21244;DHT22;10780;50.942;4.028;2022-12-18T15:45:59;2.30;99.90
21244;DHT22;10780;50.942;4.028;2022-12-18T15:48:25;2.30;99.90
21244;DHT22;10780;50.942;4.028;2022-12-18T15:50:52;2.50;99.90
21244;DHT22;10780;50.942;4.028;2022-12-18T15:53:18;2.60;99.90
21244;DHT22;10780;50.942;4.028;2022-12-18T15:55:44;2.70;99.90
21244;DHT22;10780;50.942;4.028;2022-12-18T15:58:29;2.60;99.90
21244;DHT22;10780;50.942;4.028;2022-12-18T16:00:55;2.60;99.90
21244;DHT22;10780;50.942;4.028;2022-12-18T16:03:23;2.70;99.90
21244;DHT22;10780;50.942;4.028;2022-12-18T16:05:48;2.60;99.90
21244;DHT22;10780;50.942;4.028;2022-12-18T16:08:14;2.60;99.90
21244;DHT22;10780;50.942;4.028;2022-12-18T16:10:39;2.80;99.90
21244;DHT22;10780;50.942;4.028;2022-12-18T16:13:08;2.90;99.90
21244;DHT22;10780;50.942;4.028;2022-12-18T16:15:34;2.80;99.90
21244;DHT22;10780;50.942;4.028;2022-12-18T16:18:01;2.80;99.90
21244;DHT22;10780;50.942;4.028;2022-12-18T16:20:26;2.80;99.90
21244;DHT22;10780;50.942;4.028;2022-12-18T16:22:52;2.70;99.90
21244;DHT22;10780;50.942;4.028;2022-12-18T16:25:21;2.60;99.90
21244;DHT22;10780;50.942;4.028;2022-12-18T16:27:47;2.60;99.90
21244;DHT22;10780;50.942;4.028;2022-12-18T16:30:18;2.50;99.90
21244;DHT22;10780;50.942;4.028;2022-12-18T16:32:43;2.60;99.90
21244;DHT22;10780;50.942;4.028;2022-12-18T16:35:11;2.70;99.90
21244;DHT22;10780;50.942;4.028;2022-12-18T16:37:37;2.70;99.90
21244;DHT22;10780;50.942;4.028;2022-12-18T16:40:03;2.80;99.90
21244;DHT22;10780;50.942;4.028;2022-12-18T16:42:29;2.80;99.90
21244;DHT22;10780;50.942;4.028;2022-12-18T16:44:55;2.80;99.90
21244;DHT22;10780;50.942;4.028;2022-12-18T16:47:20;2.70;99.90
21244;DHT22;10780;50.942;4.028;2022-12-18T16:49:46;2.60;99.90
21244;DHT22;10780;50.942;4.028;2022-12-18T16:52:13;2.70;99.90
21244;DHT22;10780;50.942;4.028;2022-12-18T16:54:39;2.70;99.90
21244;DHT22;10780;50.942;4.028;2022-12-18T16:57:04;2.80;99.90
21244;DHT22;10780;50.942;4.028;2022-12-18T16:59:30;2.80;99.90
21244;DHT22;10780;50.942;4.028;2022-12-18T17:01:56;2.80;99.90
21244;DHT22;10780;50.942;4.028;2022-12-18T17:04:22;2.80;99.90
21244;DHT22;10780;50.942;4.028;2022-12-18T17:06:47;2.80;99.90
21244;DHT22;10780;50.942;4.028;2022-12-18T17:09:17;2.80;99.90
21244;DHT22;10780;50.942;4.028;2022-12-18T17:11:50;2.80;99.90
21244;DHT22;10780;50.942;4.028;2022-12-18T17:14:19;2.80;99.90
21244;DHT22;10780;50.942;4.028;2022-12-18T17:16:45;2.90;99.90
21244;DHT22;10780;50.942;4.028;2022-12-18T17:19:11;2.80;99.90
21244;DHT22;10780;50.942;4.028;2022-12-18T17:21:37;2.80;99.90
21244;DHT22;10780;50.942;4.028;2022-12-18T17:24:03;2.70;99.90
21244;DHT22;10780;50.942;4.028;2022-12-18T17:26:29;2.70;99.90
21244;DHT22;10780;50.942;4.028;2022-12-18T17:28:56;2.70;99.90
21244;DHT22;10780;50.942;4.028;2022-12-18T17:31:23;2.70;99.90
21244;DHT22;10780;50.942;4.028;2022-12-18T17:33:50;2.80;99.90
21244;DHT22;10780;50.942;4.028;2022-12-18T17:36:16;2.90;99.90
21244;DHT22;10780;50.942;4.028;2022-12-18T17:38:42;2.70;99.90
21244;DHT22;10780;50.942;4.028;2022-12-18T17:41:10;2.80;99.90
21244;DHT22;10780;50.942;4.028;2022-12-18T17:43:36;2.70;99.90
21244;DHT22;10780;50.942;4.028;2022-12-18T17:46:12;2.80;99.90
21244;DHT22;10780;50.942;4.028;2022-12-18T17:48:38;2.80;99.90